createdAt,value
2022-10-30T00:00:17.766Z,14.20
2022-10-30T00:02:47.256Z,14.20
2022-10-30T00:05:15.242Z,14.20
2022-10-30T00:07:42.930Z,14.40
2022-10-30T00:10:10.731Z,14.10
2022-10-30T00:12:39.657Z,14.10
2022-10-30T00:15:08.566Z,14.10
2022-10-30T00:17:36.133Z,14.20
2022-10-30T00:20:03.870Z,14.20
2022-10-30T00:22:31.470Z,14.20
2022-10-30T00:24:59.066Z,14.20
2022-10-30T00:27:26.583Z,14.20
2022-10-30T00:29:55.450Z,14.20
2022-10-30T00:32:23.037Z,14.20
2022-10-30T00:34:50.613Z,14.20
2022-10-30T00:37:20.992Z,14.20
2022-10-30T00:39:48.707Z,14.20
2022-10-30T00:42:16.933Z,14.10
2022-10-30T00:44:46.951Z,14.20
2022-10-30T00:47:17.998Z,14.20
2022-10-30T00:49:49.868Z,14.20
2022-10-30T00:52:17.646Z,14.10
2022-10-30T00:54:45.309Z,14.10
2022-10-30T00:57:12.879Z,14.10
2022-10-30T00:59:40.792Z,14.10
2022-10-30T01:02:09.052Z,14.10
2022-10-30T01:04:38.863Z,14.10
2022-10-30T01:07:09.825Z,14.10
2022-10-30T01:09:38.008Z,14.00
2022-10-30T01:12:05.994Z,14.00
2022-10-30T01:14:34.781Z,14.00
2022-10-30T01:17:13.919Z,14.00
2022-10-30T01:19:45.098Z,14.00
2022-10-30T01:22:18.623Z,14.00
2022-10-30T01:24:50.647Z,14.00
2022-10-30T01:27:28.459Z,13.90
2022-10-30T01:30:03.081Z,14.00
2022-10-30T01:32:39.092Z,14.00
2022-10-30T01:35:11.245Z,14.00
2022-10-30T01:37:40.702Z,14.00
2022-10-30T01:40:10.355Z,14.00
2022-10-30T01:42:44.769Z,14.00
2022-10-30T01:45:14.453Z,14.10
2022-10-30T01:47:48.656Z,14.10
2022-10-30T01:50:24.815Z,14.10
2022-10-30T01:52:57.293Z,14.00
2022-10-30T01:55:29.782Z,14.00
2022-10-30T01:58:00.588Z,14.00
2022-10-30T02:00:28.320Z,14.00
2022-10-30T02:02:56.533Z,14.00
2022-10-30T02:05:31.375Z,14.00
2022-10-30T02:07:59.231Z,14.00
2022-10-30T02:10:27.254Z,13.90
2022-10-30T02:12:55.062Z,13.90
2022-10-30T02:18:09.083Z,13.90
2022-10-30T02:20:38.466Z,13.90
2022-10-30T02:23:07.062Z,13.90
2022-10-30T02:25:35.173Z,13.80
2022-10-30T02:28:02.772Z,13.80
2022-10-30T02:30:30.396Z,13.70
2022-10-30T02:32:58.269Z,13.60
2022-10-30T02:35:26.121Z,13.70
2022-10-30T02:37:55.325Z,13.60
2022-10-30T02:40:23.135Z,13.60
2022-10-30T02:42:52.898Z,13.60
2022-10-30T02:45:20.723Z,13.60
2022-10-30T02:47:48.442Z,13.60
2022-10-30T02:50:16.183Z,13.60
2022-10-30T02:52:43.722Z,13.60
2022-10-30T02:55:12.675Z,13.60
2022-10-30T02:57:40.222Z,13.50
2022-10-30T03:00:08.397Z,13.50
2022-10-30T03:02:35.986Z,13.50
2022-10-30T03:05:03.589Z,13.40
2022-10-30T03:07:31.179Z,13.40
2022-10-30T03:09:58.775Z,13.30
2022-10-30T03:12:27.655Z,13.30
2022-10-30T03:14:55.346Z,13.40
2022-10-30T03:17:22.954Z,13.30
2022-10-30T03:19:51.448Z,13.30
2022-10-30T03:22:19.054Z,13.30
2022-10-30T03:24:46.641Z,13.20
2022-10-30T03:27:14.226Z,13.20
2022-10-30T03:29:43.124Z,13.20
2022-10-30T03:32:11.601Z,13.20
2022-10-30T03:34:39.321Z,13.20
2022-10-30T03:37:06.944Z,13.10
2022-10-30T03:39:34.651Z,13.10
2022-10-30T03:42:02.241Z,13.10
2022-10-30T03:44:29.790Z,13.00
2022-10-30T03:46:59.344Z,13.00
2022-10-30T03:49:26.945Z,13.00
2022-10-30T03:51:54.519Z,13.00
2022-10-30T03:54:22.073Z,13.00
2022-10-30T03:56:49.659Z,12.90
2022-10-30T03:59:17.226Z,12.90
2022-10-30T04:01:44.910Z,12.90
2022-10-30T04:04:14.024Z,12.90
2022-10-30T04:06:41.590Z,12.90
2022-10-30T04:09:09.364Z,12.90
2022-10-30T04:11:36.927Z,12.80
2022-10-30T04:14:04.540Z,12.80
2022-10-30T04:16:32.098Z,12.80
2022-10-30T04:18:59.645Z,12.80
2022-10-30T04:21:28.501Z,12.80
2022-10-30T04:23:56.965Z,12.80
2022-10-30T04:26:24.515Z,12.80
2022-10-30T04:28:52.104Z,12.80
2022-10-30T04:31:19.757Z,12.80
2022-10-30T04:33:47.393Z,12.80
2022-10-30T04:36:15.020Z,12.80
2022-10-30T04:38:43.954Z,12.80
2022-10-30T04:41:11.583Z,12.80
2022-10-30T04:43:39.121Z,12.70
2022-10-30T04:46:06.992Z,12.70
2022-10-30T04:48:36.131Z,12.70
2022-10-30T04:51:03.790Z,12.70
2022-10-30T04:53:31.448Z,12.70
2022-10-30T04:56:00.410Z,12.70
2022-10-30T04:58:27.971Z,12.70
2022-10-30T05:01:00.347Z,12.70
2022-10-30T05:03:30.739Z,12.70
2022-10-30T05:05:59.015Z,12.60
2022-10-30T05:08:26.687Z,12.80
2022-10-30T05:10:54.371Z,12.80
2022-10-30T05:13:23.631Z,12.80
2022-10-30T05:15:51.300Z,12.80
2022-10-30T05:18:19.446Z,12.80
2022-10-30T05:20:47.568Z,12.80
2022-10-30T05:23:15.308Z,12.60
2022-10-30T05:25:42.862Z,12.50
2022-10-30T05:28:10.702Z,12.50
2022-10-30T05:30:39.614Z,12.60
2022-10-30T05:33:10.205Z,12.50
2022-10-30T05:35:38.135Z,12.50
2022-10-30T05:38:07.508Z,12.50
2022-10-30T05:40:35.568Z,12.50
2022-10-30T05:43:03.336Z,12.10
2022-10-30T05:45:30.961Z,12.50
2022-10-30T05:48:00.976Z,12.40
2022-10-30T05:50:29.337Z,12.40
2022-10-30T05:52:57.608Z,12.30
2022-10-30T05:55:25.434Z,12.50
2022-10-30T05:57:56.859Z,12.30
2022-10-30T06:00:24.983Z,12.30
2022-10-30T06:02:52.655Z,12.30
2022-10-30T06:05:21.559Z,12.30
2022-10-30T06:07:49.152Z,12.30
2022-10-30T06:10:16.801Z,12.20
2022-10-30T06:12:44.333Z,12.20
2022-10-30T06:15:11.956Z,12.20
2022-10-30T06:17:39.676Z,12.20
2022-10-30T06:20:07.477Z,12.20
2022-10-30T06:22:36.868Z,12.20
2022-10-30T06:25:04.717Z,12.20
2022-10-30T06:27:34.952Z,12.20
2022-10-30T06:30:02.650Z,12.10
2022-10-30T06:32:30.267Z,12.00
2022-10-30T06:34:57.876Z,12.10
2022-10-30T06:37:25.467Z,12.10
2022-10-30T06:39:54.533Z,12.20
2022-10-30T06:42:22.109Z,12.10
2022-10-30T06:44:49.851Z,12.10
2022-10-30T06:47:17.433Z,12.10
2022-10-30T06:49:44.987Z,12.10
2022-10-30T06:52:12.551Z,12.10
2022-10-30T06:54:40.142Z,12.20
2022-10-30T06:57:09.035Z,12.20
2022-10-30T06:59:36.666Z,12.30
2022-10-30T07:02:06.911Z,12.20
2022-10-30T07:04:36.198Z,12.30
2022-10-30T07:07:04.778Z,12.30
2022-10-30T07:09:32.489Z,12.40
2022-10-30T07:12:05.756Z,12.30
2022-10-30T07:14:35.927Z,12.30
2022-10-30T07:17:03.539Z,12.50
2022-10-30T07:19:31.078Z,12.40
2022-10-30T07:22:03.608Z,12.50
2022-10-30T07:24:31.280Z,12.60
2022-10-30T07:26:58.897Z,12.70
2022-10-30T07:29:26.459Z,12.70
2022-10-30T07:32:02.972Z,12.90
2022-10-30T07:34:31.469Z,12.70
2022-10-30T07:36:59.072Z,12.80
2022-10-30T07:39:26.703Z,12.80
2022-10-30T07:41:54.234Z,12.90
2022-10-30T07:44:21.824Z,12.90
2022-10-30T07:46:49.440Z,12.90
2022-10-30T07:49:19.402Z,13.00
2022-10-30T07:51:46.990Z,13.00
2022-10-30T07:54:14.648Z,13.10
2022-10-30T07:56:42.219Z,13.20
2022-10-30T07:59:09.812Z,13.30
2022-10-30T08:01:37.475Z,13.40
2022-10-30T08:04:05.227Z,13.50
2022-10-30T08:06:34.154Z,13.60
2022-10-30T08:09:01.736Z,13.70
2022-10-30T08:11:29.378Z,13.80
2022-10-30T08:13:56.982Z,13.90
2022-10-30T08:16:24.603Z,13.90
2022-10-30T08:18:52.295Z,14.00
2022-10-30T08:21:19.944Z,14.10
2022-10-30T08:23:48.865Z,14.10
2022-10-30T08:26:16.413Z,14.20
2022-10-30T08:28:44.080Z,14.20
2022-10-30T08:31:11.730Z,14.30
2022-10-30T08:33:39.871Z,14.30
2022-10-30T08:36:08.345Z,14.30
2022-10-30T08:38:35.983Z,14.30
2022-10-30T08:41:04.955Z,14.40
2022-10-30T08:43:32.546Z,14.40
2022-10-30T08:46:00.459Z,14.40
2022-10-30T08:48:28.084Z,14.40
2022-10-30T08:50:58.698Z,14.30
2022-10-30T08:53:26.414Z,14.40
2022-10-30T08:55:54.009Z,14.00
2022-10-30T08:58:23.052Z,14.50
2022-10-30T09:00:50.875Z,14.50
2022-10-30T09:03:18.451Z,14.60
2022-10-30T09:05:46.084Z,14.70
2022-10-30T09:08:13.655Z,14.80
2022-10-30T09:10:41.204Z,14.90
2022-10-30T09:13:11.631Z,15.10
2022-10-30T09:15:40.704Z,15.10
2022-10-30T09:18:08.327Z,15.20
2022-10-30T09:20:35.886Z,15.30
2022-10-30T09:23:03.743Z,15.30
2022-10-30T09:25:31.753Z,15.50
2022-10-30T09:27:59.417Z,15.50
2022-10-30T09:30:27.374Z,15.60
2022-10-30T09:32:57.459Z,15.70
2022-10-30T09:35:25.724Z,15.90
2022-10-30T09:37:53.341Z,16.00
2022-10-30T09:40:23.955Z,16.10
2022-10-30T09:42:51.785Z,16.20
2022-10-30T09:45:34.350Z,16.20
2022-10-30T09:48:12.115Z,16.30
2022-10-30T09:50:42.089Z,16.40
2022-10-30T09:53:14.046Z,16.50
2022-10-30T09:55:43.491Z,16.60
2022-10-30T09:58:18.608Z,16.70
2022-10-30T10:00:50.081Z,16.80
2022-10-30T10:03:24.112Z,16.80
2022-10-30T10:05:53.109Z,16.90
2022-10-30T10:08:23.241Z,16.90
2022-10-30T10:10:52.792Z,16.90
2022-10-30T10:13:31.032Z,16.90
2022-10-30T10:16:00.891Z,16.90
2022-10-30T10:21:00.192Z,17.00
2022-10-30T10:23:30.474Z,17.20
2022-10-30T10:25:59.385Z,17.50
2022-10-30T10:28:48.724Z,17.50
2022-10-30T10:31:21.741Z,17.40
2022-10-30T10:33:57.761Z,17.60
2022-10-30T10:36:31.676Z,17.60
2022-10-30T10:39:07.240Z,17.60
2022-10-30T10:41:53.802Z,17.60
2022-10-30T10:44:26.397Z,17.60
2022-10-30T10:47:07.025Z,17.60
2022-10-30T10:49:44.373Z,17.70
2022-10-30T10:52:15.259Z,17.70
2022-10-30T10:54:44.594Z,17.90
2022-10-30T10:57:17.014Z,18.00
2022-10-30T10:59:47.951Z,18.00
2022-10-30T11:02:25.856Z,18.10
2022-10-30T11:04:56.420Z,18.10
2022-10-30T11:07:25.787Z,18.20
2022-10-30T11:09:54.233Z,18.10
2022-10-30T11:12:23.825Z,18.10
2022-10-30T11:14:51.432Z,18.20
2022-10-30T11:17:22.796Z,18.30
2022-10-30T11:19:52.011Z,18.30
2022-10-30T11:22:23.903Z,18.30
2022-10-30T11:24:51.519Z,18.40
2022-10-30T11:27:24.217Z,18.40
2022-10-30T11:29:53.402Z,18.20
2022-10-30T11:32:22.652Z,18.50
2022-10-30T11:35:01.786Z,18.60
2022-10-30T11:37:34.214Z,18.60
2022-10-30T11:40:07.234Z,18.70
2022-10-30T11:42:35.587Z,18.70
2022-10-30T11:45:04.009Z,18.70
2022-10-30T11:50:07.197Z,18.80
2022-10-30T11:52:39.685Z,18.90
2022-10-30T11:55:11.715Z,19.10
2022-10-30T11:57:42.666Z,19.10
2022-10-30T12:00:15.486Z,19.00
2022-10-30T12:02:44.354Z,19.10
2022-10-30T12:05:36.277Z,19.00
2022-10-30T12:08:21.902Z,19.00
2022-10-30T12:10:59.602Z,19.00
2022-10-30T12:13:27.882Z,19.10
2022-10-30T12:16:06.540Z,19.30
2022-10-30T12:18:34.635Z,19.10
2022-10-30T12:21:02.944Z,19.10
2022-10-30T12:23:30.684Z,19.10
2022-10-30T12:26:00.803Z,19.10
2022-10-30T12:28:29.187Z,19.20
2022-10-30T12:30:58.899Z,19.20
2022-10-30T12:33:28.832Z,19.50
2022-10-30T12:35:57.595Z,19.70
2022-10-30T12:38:29.094Z,19.70
2022-10-30T12:41:05.591Z,19.60
2022-10-30T12:43:35.499Z,19.50
2022-10-30T12:46:08.979Z,19.40
2022-10-30T12:48:38.561Z,19.20
2022-10-30T12:51:12.106Z,19.30
2022-10-30T12:53:44.532Z,19.30
2022-10-30T12:56:16.419Z,19.30
2022-10-30T12:58:45.968Z,19.30
2022-10-30T13:01:17.387Z,19.30
2022-10-30T13:03:51.204Z,19.30
2022-10-30T13:06:21.262Z,19.50
2022-10-30T13:08:54.363Z,19.40
2022-10-30T13:11:28.526Z,19.40
2022-10-30T13:13:56.746Z,19.30
2022-10-30T13:16:26.698Z,19.20
2022-10-30T13:18:56.227Z,19.30
2022-10-30T13:21:26.730Z,19.20
2022-10-30T13:23:56.845Z,19.20
2022-10-30T13:26:30.691Z,19.20
2022-10-30T13:29:02.302Z,19.20
2022-10-30T13:31:33.564Z,19.20
2022-10-30T13:34:04.044Z,19.20
2022-10-30T13:36:34.305Z,19.30
2022-10-30T13:39:04.508Z,19.30
2022-10-30T13:41:39.168Z,19.40
2022-10-30T13:44:13.321Z,19.40
2022-10-30T13:46:50.943Z,19.30
2022-10-30T13:49:26.931Z,19.50
2022-10-30T13:51:56.697Z,19.50
2022-10-30T13:54:26.326Z,19.50
2022-10-30T13:56:56.819Z,19.40
2022-10-30T13:59:33.274Z,19.50
2022-10-30T14:02:05.191Z,19.40
2022-10-30T14:04:37.359Z,19.30
2022-10-30T14:07:16.337Z,18.90
2022-10-30T14:09:50.135Z,19.10
2022-10-30T14:12:36.521Z,19.00
2022-10-30T14:15:06.670Z,19.00
2022-10-30T14:17:34.293Z,18.90
2022-10-30T14:20:23.586Z,18.90
2022-10-30T14:23:07.652Z,18.80
2022-10-30T14:25:35.478Z,18.80
2022-10-30T14:28:03.206Z,18.80
2022-10-30T14:30:34.698Z,18.70
2022-10-30T14:33:02.468Z,18.70
2022-10-30T14:35:34.735Z,18.60
2022-10-30T14:38:25.505Z,18.60
2022-10-30T14:41:08.380Z,18.60
2022-10-30T14:43:44.886Z,18.60
2022-10-30T14:46:19.774Z,18.50
2022-10-30T14:48:50.659Z,18.50
2022-10-30T14:51:20.348Z,18.60
2022-10-30T14:53:54.824Z,18.60
2022-10-30T14:56:27.730Z,18.60
2022-10-30T14:59:19.016Z,18.40
2022-10-30T15:01:52.528Z,18.30
2022-10-30T15:04:23.494Z,18.30
2022-10-30T15:06:55.217Z,18.30
2022-10-30T15:09:34.157Z,18.20
2022-10-30T15:12:21.519Z,18.00
2022-10-30T15:14:54.679Z,17.90
2022-10-30T15:17:28.025Z,17.80
2022-10-30T15:19:56.305Z,17.70
2022-10-30T15:22:24.529Z,17.70
2022-10-30T15:24:52.610Z,17.60
2022-10-30T15:27:21.373Z,17.50
2022-10-30T15:29:50.947Z,17.40
2022-10-30T15:32:19.700Z,17.40
2022-10-30T15:34:55.556Z,17.40
2022-10-30T15:37:23.195Z,17.30
2022-10-30T15:39:50.812Z,17.20
2022-10-30T15:42:18.771Z,17.30
2022-10-30T15:44:46.975Z,17.10
2022-10-30T15:47:16.534Z,17.00
2022-10-30T15:49:48.914Z,16.80
2022-10-30T15:52:20.147Z,16.70
2022-10-30T15:54:48.890Z,16.70
2022-10-30T15:57:49.305Z,16.70
2022-10-30T16:00:07.904Z,16.60
2022-10-30T16:02:36.467Z,16.50
2022-10-30T16:05:20.098Z,16.50
2022-10-30T16:07:49.176Z,16.50
2022-10-30T16:10:17.403Z,16.40
2022-10-30T16:12:45.366Z,16.30
2022-10-30T16:15:22.453Z,16.30
2022-10-30T16:17:53.166Z,16.30
2022-10-30T16:20:23.769Z,16.20
2022-10-30T16:22:52.861Z,16.10
2022-10-30T16:25:21.955Z,16.10
2022-10-30T16:27:49.581Z,16.00
2022-10-30T16:30:17.595Z,15.90
2022-10-30T16:32:52.081Z,15.90
2022-10-30T16:35:21.656Z,15.80
2022-10-30T16:37:50.614Z,15.80
2022-10-30T16:40:21.061Z,15.70
2022-10-30T16:42:50.474Z,15.70
2022-10-30T16:45:37.087Z,15.70
2022-10-30T16:48:09.508Z,15.60
2022-10-30T16:50:38.179Z,15.50
2022-10-30T16:53:06.442Z,15.50
2022-10-30T16:55:38.576Z,15.50
2022-10-30T16:58:06.408Z,15.50
2022-10-30T17:00:36.682Z,15.50
2022-10-30T17:03:08.920Z,15.40
2022-10-30T17:05:37.260Z,15.40
2022-10-30T17:08:06.007Z,15.40
2022-10-30T17:10:36.212Z,15.40
2022-10-30T17:13:22.282Z,15.30
2022-10-30T17:15:49.868Z,15.30
2022-10-30T17:18:17.810Z,15.20
2022-10-30T17:20:45.399Z,15.30
2022-10-30T17:23:15.329Z,15.20
2022-10-30T17:25:44.413Z,15.20
2022-10-30T17:28:25.460Z,15.20
2022-10-30T17:30:53.198Z,15.10
2022-10-30T17:33:35.246Z,15.10
2022-10-30T17:36:03.309Z,15.00
2022-10-30T17:38:30.892Z,15.00
2022-10-30T17:41:00.260Z,15.00
2022-10-30T17:43:29.276Z,14.90
2022-10-30T17:45:58.090Z,14.90
2022-10-30T17:48:27.530Z,14.90
2022-10-30T17:50:55.813Z,14.90
2022-10-30T17:53:24.465Z,14.90
2022-10-30T17:55:56.817Z,14.90
2022-10-30T17:58:25.969Z,14.80
2022-10-30T18:00:53.645Z,14.80
2022-10-30T18:03:21.404Z,14.80
2022-10-30T18:05:49.397Z,14.80
2022-10-30T18:08:16.985Z,14.80
2022-10-30T18:10:44.609Z,14.70
2022-10-30T18:13:12.899Z,14.70
2022-10-30T18:15:46.404Z,14.70
2022-10-30T18:18:14.270Z,14.70
2022-10-30T18:20:41.933Z,14.70
2022-10-30T18:23:38.871Z,14.60
2022-10-30T18:26:04.770Z,14.60
2022-10-30T18:28:32.381Z,14.60
2022-10-30T18:31:01.754Z,14.80
2022-10-30T18:33:29.359Z,14.60
2022-10-30T18:35:57.690Z,14.50
2022-10-30T18:38:25.270Z,14.50
2022-10-30T18:40:52.993Z,14.50
2022-10-30T18:43:20.620Z,14.50
2022-10-30T18:45:48.192Z,14.50
2022-10-30T18:48:17.519Z,14.40
2022-10-30T18:50:45.528Z,14.40
2022-10-30T18:53:15.090Z,14.40
2022-10-30T18:55:43.961Z,14.60
2022-10-30T18:58:11.995Z,14.40
2022-10-30T19:01:09.948Z,14.40
2022-10-30T19:03:29.317Z,14.30
2022-10-30T19:05:57.458Z,14.30
2022-10-30T19:08:25.183Z,14.30
2022-10-30T19:10:56.752Z,14.50
2022-10-30T19:13:24.733Z,14.20
2022-10-30T19:15:58.953Z,14.20
2022-10-30T19:18:31.174Z,14.10
2022-10-30T19:21:05.032Z,14.10
2022-10-30T19:23:35.038Z,14.10
2022-10-30T19:26:02.801Z,14.10
2022-10-30T19:28:31.058Z,14.10
2022-10-30T19:30:58.706Z,14.10
2022-10-30T19:33:26.328Z,14.00
2022-10-30T19:35:55.776Z,14.00
2022-10-30T19:38:23.742Z,14.00
2022-10-30T19:40:51.726Z,14.00
2022-10-30T19:43:20.000Z,14.00
2022-10-30T19:45:51.339Z,14.00
2022-10-30T19:48:40.527Z,14.00
2022-10-30T19:51:12.462Z,14.00
2022-10-30T19:53:40.064Z,13.90
2022-10-30T19:56:09.508Z,13.90
2022-10-30T19:58:37.322Z,13.80
2022-10-30T20:01:05.027Z,13.80
2022-10-30T20:03:32.812Z,13.80
2022-10-30T20:06:00.581Z,13.80
2022-10-30T20:08:29.629Z,14.00
2022-10-30T20:10:57.829Z,13.70
2022-10-30T20:13:26.195Z,13.70
2022-10-30T20:15:54.447Z,13.70
2022-10-30T20:18:23.086Z,13.70
2022-10-30T20:20:51.440Z,13.70
2022-10-30T20:23:20.148Z,13.60
2022-10-30T20:25:49.740Z,13.60
2022-10-30T20:28:21.844Z,13.60
2022-10-30T20:30:49.714Z,13.50
2022-10-30T20:33:19.150Z,13.50
2022-10-30T20:35:46.861Z,13.50
2022-10-30T20:38:16.799Z,13.50
2022-10-30T20:40:44.777Z,13.50
2022-10-30T20:43:15.784Z,13.50
2022-10-30T20:45:43.503Z,13.50
2022-10-30T20:48:11.341Z,13.40
2022-10-30T20:50:39.600Z,13.40
2022-10-30T20:53:07.479Z,13.40
2022-10-30T20:55:35.763Z,13.30
2022-10-30T20:58:03.970Z,13.40
2022-10-30T21:00:33.333Z,13.40
2022-10-30T21:03:02.455Z,13.30
2022-10-30T21:05:43.163Z,13.30
2022-10-30T21:08:11.805Z,13.30
2022-10-30T21:10:39.778Z,13.30
2022-10-30T21:13:10.005Z,13.20
2022-10-30T21:15:40.397Z,13.20
2022-10-30T21:18:08.105Z,13.20
2022-10-30T21:20:36.927Z,13.20
2022-10-30T21:23:04.998Z,13.20
2022-10-30T21:25:33.121Z,13.20
2022-10-30T21:28:00.891Z,13.10
2022-10-30T21:30:28.821Z,13.20
2022-10-30T21:32:59.319Z,13.10
2022-10-30T21:35:27.732Z,13.10
2022-10-30T21:37:55.331Z,13.10
2022-10-30T21:40:23.122Z,13.10
2022-10-30T21:42:50.846Z,13.10
2022-10-30T21:45:18.491Z,12.90
2022-10-30T21:47:46.135Z,13.10
2022-10-30T21:50:15.199Z,13.00
2022-10-30T21:52:42.827Z,13.00
2022-10-30T21:55:10.408Z,13.00
2022-10-30T21:57:38.181Z,13.00
2022-10-30T22:00:07.526Z,13.00
2022-10-30T22:02:35.554Z,13.00
2022-10-30T22:05:03.349Z,12.90
2022-10-30T22:07:32.458Z,12.90
2022-10-30T22:10:00.087Z,12.90
2022-10-30T22:12:27.829Z,12.80
2022-10-30T22:14:55.433Z,12.80
2022-10-30T22:17:23.171Z,12.80
2022-10-30T22:19:50.763Z,12.80
2022-10-30T22:22:18.379Z,12.70
2022-10-30T22:24:47.293Z,12.70
2022-10-30T22:27:14.861Z,12.70
2022-10-30T22:29:42.485Z,12.70
2022-10-30T22:32:10.050Z,12.70
2022-10-30T22:34:37.658Z,12.70
2022-10-30T22:37:05.252Z,12.60
2022-10-30T22:39:32.878Z,12.60
2022-10-30T22:42:01.943Z,12.60
2022-10-30T22:44:29.493Z,12.60
2022-10-30T22:46:57.196Z,12.60
2022-10-30T22:49:24.806Z,12.60
2022-10-30T22:51:52.375Z,12.50
2022-10-30T22:54:19.998Z,12.50
2022-10-30T22:56:47.735Z,12.50
2022-10-30T22:59:16.719Z,12.50
2022-10-30T23:01:47.531Z,12.50
2022-10-30T23:04:16.031Z,12.50
2022-10-30T23:06:44.173Z,12.50
2022-10-30T23:09:15.419Z,12.40
2022-10-30T23:11:43.338Z,12.00
2022-10-30T23:14:10.928Z,12.30
2022-10-30T23:16:39.931Z,12.30
2022-10-30T23:19:08.079Z,12.30
2022-10-30T23:21:35.818Z,12.30
2022-10-30T23:24:04.170Z,12.30
2022-10-30T23:26:33.238Z,12.30
2022-10-30T23:29:01.481Z,12.30
2022-10-30T23:31:30.180Z,12.30
2022-10-30T23:34:00.224Z,12.30
2022-10-30T23:36:28.130Z,12.30
2022-10-30T23:38:56.438Z,12.20
2022-10-30T23:41:24.885Z,12.30
2022-10-30T23:43:53.777Z,12.10
2022-10-30T23:46:21.601Z,12.10
2022-10-30T23:48:49.195Z,12.20
2022-10-30T23:51:18.327Z,12.30
2022-10-30T23:53:45.965Z,12.20
2022-10-30T23:56:14.006Z,12.30
2022-10-30T23:58:43.683Z,12.30
